createdAt,value
2024-05-09T00:00:47.818Z,10.30
2024-05-09T00:03:16.034Z,9.85
2024-05-09T00:05:44.426Z,10.02
2024-05-09T00:08:12.838Z,9.83
2024-05-09T00:10:41.574Z,9.70
2024-05-09T00:13:11.072Z,9.45
2024-05-09T00:15:39.580Z,9.77
2024-05-09T00:18:08.696Z,9.85
2024-05-09T00:20:40.135Z,9.80
2024-05-09T00:23:18.836Z,9.83
2024-05-09T00:25:46.882Z,10.02
2024-05-09T00:28:15.052Z,10.08
2024-05-09T00:30:43.045Z,9.88
2024-05-09T00:33:11.895Z,10.10
2024-05-09T00:35:41.546Z,10.88
2024-05-09T00:38:10.705Z,10.50
2024-05-09T00:40:43.402Z,10.06
2024-05-09T00:43:13.729Z,9.94
2024-05-09T00:45:43.988Z,9.87
2024-05-09T00:48:17.521Z,9.85
2024-05-09T00:50:48.467Z,10.17
2024-05-09T00:53:19.000Z,9.86
2024-05-09T00:55:47.795Z,9.80
2024-05-09T00:58:18.781Z,10.50
2024-05-09T01:00:49.028Z,9.42
2024-05-09T01:03:18.235Z,9.84
2024-05-09T01:05:46.558Z,9.25
2024-05-09T01:08:14.941Z,10.00
2024-05-09T01:10:46.139Z,9.99
2024-05-09T01:13:16.189Z,9.81
2024-05-09T01:15:44.501Z,9.71
2024-05-09T01:18:13.864Z,9.77
2024-05-09T01:20:44.678Z,9.64
2024-05-09T01:23:15.843Z,9.58
2024-05-09T01:25:46.373Z,9.85
2024-05-09T01:28:16.575Z,9.05
2024-05-09T01:30:44.868Z,10.01
2024-05-09T01:33:13.697Z,9.88
2024-05-09T01:35:43.005Z,9.88
2024-05-09T01:38:13.759Z,9.47
2024-05-09T01:40:43.834Z,9.85
2024-05-09T01:43:12.435Z,9.36
2024-05-09T01:45:41.290Z,9.59
2024-05-09T01:48:11.164Z,9.95
2024-05-09T01:50:42.352Z,9.71
2024-05-09T01:53:14.355Z,9.91
2024-05-09T01:55:44.091Z,9.95
2024-05-09T01:58:12.676Z,9.75
2024-05-09T02:00:42.691Z,9.98
2024-05-09T02:03:16.038Z,9.84
2024-05-09T02:05:47.424Z,10.09
2024-05-09T02:08:19.277Z,10.09
2024-05-09T02:10:49.346Z,10.01
2024-05-09T02:13:18.167Z,9.98
2024-05-09T02:15:46.754Z,10.17
2024-05-09T02:18:15.113Z,9.83
2024-05-09T02:20:44.040Z,10.37
2024-05-09T02:23:12.717Z,10.01
2024-05-09T02:25:44.129Z,10.25
2024-05-09T02:28:12.162Z,10.35
2024-05-09T02:30:41.996Z,10.05
2024-05-09T02:33:12.957Z,10.57
2024-05-09T02:35:44.097Z,10.27
2024-05-09T02:38:13.096Z,9.76
2024-05-09T02:40:41.516Z,9.97
2024-05-09T02:43:12.773Z,9.68
2024-05-09T02:45:41.365Z,9.82
2024-05-09T02:48:13.977Z,9.85
2024-05-09T02:50:44.406Z,9.70
2024-05-09T02:53:13.328Z,9.63
2024-05-09T02:55:42.531Z,9.72
2024-05-09T02:58:11.804Z,9.60
2024-05-09T03:00:42.090Z,10.00
2024-05-09T03:03:14.040Z,10.27
2024-05-09T03:05:44.884Z,9.66
2024-05-09T03:08:13.516Z,10.22
2024-05-09T03:10:41.701Z,10.00
2024-05-09T03:13:12.903Z,10.47
2024-05-09T03:15:43.017Z,10.33
2024-05-09T03:18:11.841Z,10.54
2024-05-09T03:20:40.958Z,10.17
2024-05-09T03:23:10.051Z,10.03
2024-05-09T03:25:39.141Z,10.12
2024-05-09T03:28:07.673Z,10.17
2024-05-09T03:30:41.244Z,9.56
2024-05-09T03:33:13.478Z,10.41
2024-05-09T03:35:44.154Z,10.50
2024-05-09T03:38:12.417Z,10.30
2024-05-09T03:40:49.031Z,10.23
2024-05-09T03:43:18.246Z,10.29
2024-05-09T03:45:48.640Z,10.40
2024-05-09T03:48:17.339Z,9.99
2024-05-09T03:50:45.782Z,10.36
2024-05-09T03:53:14.664Z,10.14
2024-05-09T03:55:42.933Z,10.10
2024-05-09T03:58:12.980Z,9.98
2024-05-09T04:00:42.810Z,10.27
2024-05-09T04:03:12.685Z,10.30
2024-05-09T04:05:43.026Z,10.32
2024-05-09T04:08:15.157Z,10.07
2024-05-09T04:10:44.001Z,10.43
2024-05-09T04:13:12.151Z,10.48
2024-05-09T04:15:40.581Z,10.45
2024-05-09T04:18:08.762Z,10.59
2024-05-09T04:20:39.978Z,10.23
2024-05-09T04:23:13.970Z,9.51
2024-05-09T04:25:45.342Z,9.01
2024-05-09T04:28:14.243Z,8.52
2024-05-09T04:30:42.971Z,8.15
2024-05-09T04:33:13.457Z,8.01
2024-05-09T04:35:43.774Z,8.35
2024-05-09T04:38:13.819Z,8.44
2024-05-09T04:40:42.571Z,8.26
2024-05-09T04:43:15.951Z,7.67
2024-05-09T04:45:44.772Z,7.67
2024-05-09T04:48:13.331Z,7.44
2024-05-09T04:50:41.900Z,7.69
2024-05-09T04:53:11.353Z,7.27
2024-05-09T04:55:40.588Z,7.39
2024-05-09T04:58:09.823Z,7.51
2024-05-09T05:00:41.565Z,7.43
2024-05-09T05:03:14.531Z,7.31
2024-05-09T05:05:45.458Z,7.45
2024-05-09T05:08:16.996Z,7.37
2024-05-09T05:10:46.977Z,7.28
2024-05-09T05:13:18.026Z,7.41
2024-05-09T05:15:47.528Z,7.39
2024-05-09T05:18:16.660Z,7.98
2024-05-09T05:20:45.234Z,8.44
2024-05-09T05:23:19.607Z,8.70
2024-05-09T05:25:49.525Z,9.12
2024-05-09T05:28:17.874Z,8.82
2024-05-09T05:30:46.470Z,8.81
2024-05-09T05:33:16.178Z,8.90
2024-05-09T05:35:44.513Z,9.12
2024-05-09T05:38:12.932Z,9.67
2024-05-09T05:40:41.376Z,10.51
2024-05-09T05:43:16.891Z,11.00
2024-05-09T05:45:45.738Z,11.62
2024-05-09T05:48:17.171Z,10.70
2024-05-09T05:50:46.098Z,11.23
2024-05-09T05:53:14.656Z,13.12
2024-05-09T05:55:42.898Z,15.00
2024-05-09T05:58:15.135Z,13.89
2024-05-09T06:00:43.529Z,13.25
2024-05-09T06:03:13.573Z,13.51
2024-05-09T06:05:46.796Z,13.33
2024-05-09T06:08:15.127Z,14.30
2024-05-09T06:10:43.310Z,13.89
2024-05-09T06:13:13.567Z,13.64
2024-05-09T06:15:43.224Z,13.31
2024-05-09T06:18:12.547Z,12.79
2024-05-09T06:20:43.625Z,12.30
2024-05-09T06:23:13.137Z,12.42
2024-05-09T06:25:42.680Z,13.50
2024-05-09T06:28:11.330Z,14.06
2024-05-09T06:30:42.555Z,14.71
2024-05-09T06:33:13.851Z,13.57
2024-05-09T06:35:45.947Z,12.84
2024-05-09T06:38:14.465Z,12.26
2024-05-09T06:40:44.140Z,12.37
2024-05-09T06:43:18.558Z,11.97
2024-05-09T06:45:49.233Z,11.79
2024-05-09T06:48:19.499Z,11.73
2024-05-09T06:50:48.413Z,11.49
2024-05-09T06:53:17.387Z,10.88
2024-05-09T06:55:45.818Z,11.11
2024-05-09T06:58:13.841Z,11.33
2024-05-09T07:00:42.585Z,11.21
2024-05-09T07:03:14.169Z,11.18
2024-05-09T07:05:46.276Z,11.73
2024-05-09T07:08:15.179Z,11.36
2024-05-09T07:10:44.604Z,11.81
2024-05-09T07:13:14.281Z,12.39
2024-05-09T07:15:43.252Z,12.59
2024-05-09T07:18:18.281Z,12.09
2024-05-09T07:20:48.223Z,10.95
2024-05-09T07:23:17.172Z,11.43
2024-05-09T07:25:46.235Z,11.21
2024-05-09T07:28:18.809Z,9.23
2024-05-09T07:30:47.443Z,8.92
2024-05-09T07:33:20.553Z,8.87
2024-05-09T07:35:50.276Z,9.10
2024-05-09T07:38:18.906Z,8.66
2024-05-09T07:40:47.083Z,8.74
2024-05-09T07:43:16.361Z,10.46
2024-05-09T07:45:52.153Z,10.64
2024-05-09T07:53:39.984Z,8.44
2024-05-09T07:56:13.951Z,7.95
2024-05-09T07:58:43.851Z,7.97
2024-05-09T08:01:12.045Z,8.85
2024-05-09T08:03:40.657Z,9.61
2024-05-09T08:06:08.841Z,9.83
2024-05-09T08:08:36.984Z,9.70
2024-05-09T08:11:06.568Z,9.29
2024-05-09T08:13:34.878Z,8.92
2024-05-09T08:16:03.555Z,20.05
2024-05-09T08:18:31.996Z,13.57
2024-05-09T08:21:00.163Z,13.99
2024-05-09T08:23:29.057Z,13.42
2024-05-09T08:25:57.353Z,13.09
2024-05-09T08:28:25.684Z,12.28
2024-05-09T08:30:54.062Z,11.88
2024-05-09T08:33:22.385Z,12.30
2024-05-09T08:35:50.540Z,13.65
2024-05-09T08:38:19.090Z,13.59
2024-05-09T08:40:48.769Z,12.72
2024-05-09T08:43:20.152Z,12.59
2024-05-09T08:48:18.359Z,12.56
2024-05-09T08:50:47.809Z,12.63
2024-05-09T08:53:16.121Z,12.59
2024-05-09T08:55:46.303Z,11.76
2024-05-09T08:58:19.703Z,11.29
2024-05-09T09:00:49.504Z,11.14
2024-05-09T09:03:19.948Z,11.22
2024-05-09T09:05:59.452Z,12.76
2024-05-09T09:08:28.564Z,11.78
2024-05-09T09:10:59.858Z,11.77
2024-05-09T09:13:28.247Z,12.78
2024-05-09T09:16:00.182Z,10.96
2024-05-09T09:18:30.706Z,9.04
2024-05-09T09:20:59.039Z,8.30
2024-05-09T09:23:30.810Z,8.75
2024-05-09T09:26:01.595Z,7.75
2024-05-09T09:28:31.642Z,7.06
2024-05-09T09:31:04.876Z,6.72
2024-05-09T09:33:36.144Z,6.70
2024-05-09T09:36:06.979Z,6.18
2024-05-09T09:38:37.561Z,6.45
2024-05-09T09:41:08.040Z,5.85
2024-05-09T09:43:37.138Z,5.53
2024-05-09T09:46:09.569Z,4.60
2024-05-09T09:48:40.708Z,4.59
2024-05-09T09:51:09.905Z,4.70
2024-05-09T09:53:38.623Z,5.05
2024-05-09T09:56:07.896Z,5.25
2024-05-09T09:58:38.933Z,5.63
2024-05-09T10:01:07.145Z,6.14
2024-05-09T10:03:35.563Z,5.56
2024-05-09T10:06:05.762Z,4.91
2024-05-09T10:08:35.763Z,5.25
2024-05-09T10:11:04.409Z,5.11
2024-05-09T10:13:34.005Z,5.08
2024-05-09T10:16:09.335Z,5.59
2024-05-09T10:18:38.720Z,6.33
2024-05-09T10:21:16.636Z,5.83
2024-05-09T10:23:57.005Z,6.01
2024-05-09T10:26:35.059Z,6.36
2024-05-09T10:29:25.746Z,6.16
2024-05-09T10:31:54.166Z,5.80
2024-05-09T10:34:23.538Z,5.44
2024-05-09T10:36:55.368Z,5.62
2024-05-09T10:39:25.542Z,6.26
2024-05-09T10:41:53.717Z,6.89
2024-05-09T10:44:21.765Z,6.41
2024-05-09T10:46:50.498Z,5.90
2024-05-09T10:49:18.751Z,5.85
2024-05-09T10:51:48.503Z,6.50
2024-05-09T10:54:17.059Z,6.26
2024-05-09T10:56:45.189Z,6.20
2024-05-09T10:59:13.320Z,6.14
2024-05-09T11:01:41.683Z,6.64
2024-05-09T11:04:10.109Z,6.41
2024-05-09T11:06:38.953Z,6.11
2024-05-09T11:09:07.811Z,6.41
2024-05-09T11:11:36.195Z,6.38
2024-05-09T11:14:13.878Z,6.44
2024-05-09T11:16:42.118Z,6.43
2024-05-09T11:19:14.110Z,6.15
2024-05-09T11:21:42.817Z,5.71
2024-05-09T11:24:11.793Z,5.83
2024-05-09T11:26:40.027Z,6.02
2024-05-09T11:29:08.053Z,6.01
2024-05-09T11:31:48.504Z,6.57
2024-05-09T11:34:16.795Z,6.81
2024-05-09T11:36:45.060Z,6.31
2024-05-09T11:39:14.814Z,6.03
2024-05-09T11:41:43.080Z,5.95
2024-05-09T11:44:11.092Z,5.76
2024-05-09T11:46:39.310Z,5.61
2024-05-09T11:49:09.509Z,5.99
2024-05-09T11:51:37.825Z,5.73
2024-05-09T11:54:05.804Z,5.88
2024-05-09T11:56:34.051Z,5.58
2024-05-09T11:59:02.066Z,5.35
2024-05-09T12:01:30.403Z,5.41
2024-05-09T12:03:58.900Z,4.80
2024-05-09T12:06:27.400Z,5.21
2024-05-09T12:08:56.169Z,5.17
2024-05-09T12:11:24.368Z,5.10
2024-05-09T12:13:52.521Z,5.50
2024-05-09T12:16:20.937Z,5.44
2024-05-09T12:18:49.256Z,5.29
2024-05-09T12:21:18.027Z,6.37
2024-05-09T12:23:46.032Z,6.57
2024-05-09T12:26:16.092Z,6.09
2024-05-09T12:28:44.372Z,6.10
2024-05-09T12:31:12.379Z,7.02
2024-05-09T12:33:40.740Z,6.56
2024-05-09T12:36:08.958Z,7.44
2024-05-09T12:38:37.082Z,8.23
2024-05-09T12:41:05.744Z,6.97
2024-05-09T12:43:33.838Z,9.18
2024-05-09T12:46:03.451Z,6.47
2024-05-09T12:48:31.741Z,6.19
2024-05-09T12:50:59.932Z,5.73
2024-05-09T12:53:28.107Z,6.35
2024-05-09T12:56:00.141Z,5.64
2024-05-09T12:58:30.876Z,6.09
2024-05-09T13:00:59.158Z,5.92
2024-05-09T13:03:27.424Z,6.23
2024-05-09T13:05:55.777Z,7.14
2024-05-09T13:08:24.263Z,5.78
2024-05-09T13:10:52.363Z,6.42
2024-05-09T13:13:20.503Z,5.95
2024-05-09T13:15:48.963Z,5.95
2024-05-09T13:18:17.000Z,6.45
2024-05-09T13:20:45.156Z,6.40
2024-05-09T13:23:13.338Z,7.06
2024-05-09T13:25:41.291Z,7.17
2024-05-09T13:28:09.628Z,5.40
2024-05-09T13:30:41.052Z,5.75
2024-05-09T13:33:12.135Z,5.65
2024-05-09T13:35:46.867Z,6.36
2024-05-09T13:38:19.278Z,6.29
2024-05-09T13:40:48.295Z,5.80
2024-05-09T13:43:17.602Z,6.35
2024-05-09T13:45:46.506Z,6.76
2024-05-09T13:48:14.990Z,5.37
2024-05-09T13:50:43.219Z,4.94
2024-05-09T13:53:11.925Z,4.80
2024-05-09T13:55:40.563Z,4.82
2024-05-09T13:58:09.544Z,4.72
2024-05-09T14:00:46.290Z,4.28
2024-05-09T14:03:19.288Z,4.42
2024-05-09T14:05:50.984Z,4.73
2024-05-09T14:08:22.684Z,4.20
2024-05-09T14:10:52.383Z,4.23
2024-05-09T14:13:20.771Z,4.74
2024-05-09T14:15:49.378Z,4.97
2024-05-09T14:18:18.089Z,6.24
2024-05-09T14:20:46.304Z,5.31
2024-05-09T14:23:15.104Z,4.58
2024-05-09T14:25:44.526Z,4.73
2024-05-09T14:28:13.860Z,4.85
2024-05-09T14:30:42.792Z,4.48
2024-05-09T14:33:11.729Z,4.56
2024-05-09T14:35:40.228Z,4.36
2024-05-09T14:38:09.003Z,4.65
2024-05-09T14:40:42.449Z,4.14
2024-05-09T14:43:13.978Z,4.64
2024-05-09T14:45:43.771Z,4.44
2024-05-09T14:48:15.108Z,4.52
2024-05-09T14:50:43.552Z,4.70
2024-05-09T14:53:13.628Z,4.76
2024-05-09T14:55:43.410Z,4.06
2024-05-09T14:58:13.373Z,4.23
2024-05-09T15:00:46.449Z,4.23
2024-05-09T15:03:19.767Z,4.46
2024-05-09T15:05:49.254Z,4.00
2024-05-09T15:08:18.456Z,4.05
2024-05-09T15:10:49.866Z,4.32
2024-05-09T15:13:19.772Z,4.13
2024-05-09T15:15:48.442Z,4.37
2024-05-09T15:18:18.070Z,4.60
2024-05-09T15:20:46.473Z,4.13
2024-05-09T15:23:14.656Z,4.02
2024-05-09T15:25:44.868Z,4.20
2024-05-09T15:28:13.375Z,4.28
2024-05-09T15:30:45.234Z,4.17
2024-05-09T15:33:14.888Z,4.30
2024-05-09T15:35:43.236Z,4.29
2024-05-09T15:38:11.426Z,4.61
2024-05-09T15:40:40.879Z,4.30
2024-05-09T15:43:10.980Z,4.24
2024-05-09T15:45:41.287Z,4.22
2024-05-09T15:48:10.979Z,4.46
2024-05-09T15:50:41.735Z,4.25
2024-05-09T15:53:13.306Z,4.45
2024-05-09T15:55:42.730Z,4.45
2024-05-09T15:58:11.241Z,4.69
2024-05-09T16:00:42.429Z,4.49
2024-05-09T16:03:14.601Z,4.09
2024-05-09T16:05:45.737Z,3.98
2024-05-09T16:08:15.576Z,4.26
2024-05-09T16:10:46.270Z,3.91
2024-05-09T16:13:17.199Z,4.24
2024-05-09T16:15:45.965Z,4.05
2024-05-09T16:18:14.525Z,4.34
2024-05-09T16:20:44.743Z,6.20
2024-05-09T16:23:14.432Z,6.65
2024-05-09T16:25:48.276Z,4.43
2024-05-09T16:28:16.955Z,3.92
2024-05-09T16:30:45.630Z,4.29
2024-05-09T16:33:13.983Z,4.84
2024-05-09T16:35:42.088Z,4.52
2024-05-09T16:38:10.329Z,5.68
2024-05-09T16:40:40.819Z,4.19
2024-05-09T16:43:11.583Z,4.21
2024-05-09T16:45:41.571Z,4.04
2024-05-09T16:48:09.968Z,4.23
2024-05-09T16:50:39.104Z,4.26
2024-05-09T16:53:07.915Z,4.13
2024-05-09T16:55:36.405Z,4.36
2024-05-09T16:58:06.924Z,4.39
2024-05-09T17:00:41.067Z,4.25
2024-05-09T17:03:15.878Z,5.03
2024-05-09T17:05:46.916Z,4.80
2024-05-09T17:08:20.012Z,4.39
2024-05-09T17:10:49.453Z,4.57
2024-05-09T17:13:19.201Z,4.32
2024-05-09T17:15:48.812Z,4.15
2024-05-09T17:18:17.296Z,4.03
2024-05-09T17:20:45.489Z,4.45
2024-05-09T17:23:14.435Z,4.18
2024-05-09T17:25:43.078Z,4.08
2024-05-09T17:28:12.158Z,4.38
2024-05-09T17:30:42.225Z,4.27
2024-05-09T17:33:12.283Z,4.30
2024-05-09T17:35:41.205Z,4.18
2024-05-09T17:38:09.562Z,4.22
2024-05-09T17:40:38.893Z,4.49
2024-05-09T17:43:09.755Z,4.40
2024-05-09T17:45:40.946Z,4.36
2024-05-09T17:48:11.939Z,4.30
2024-05-09T17:50:41.883Z,4.32
2024-05-09T17:53:10.976Z,4.13
2024-05-09T17:55:40.213Z,4.47
2024-05-09T17:58:08.770Z,4.08
2024-05-09T18:00:40.644Z,4.29
2024-05-09T18:03:12.198Z,4.45
2024-05-09T18:05:42.885Z,4.48
2024-05-09T18:08:12.572Z,5.90
2024-05-09T18:10:41.482Z,7.75
2024-05-09T18:13:11.085Z,6.01
2024-05-09T18:15:39.786Z,5.75
2024-05-09T18:18:09.467Z,5.14
2024-05-09T18:20:43.705Z,4.88
2024-05-09T18:23:16.520Z,4.74
2024-05-09T18:25:46.412Z,4.78
2024-05-09T18:28:16.136Z,4.91
2024-05-09T18:30:44.560Z,4.85
2024-05-09T18:33:13.117Z,4.99
2024-05-09T18:35:43.422Z,4.76
2024-05-09T18:38:11.549Z,5.04
2024-05-09T18:40:41.156Z,4.95
2024-05-09T18:43:11.270Z,5.05
2024-05-09T18:45:39.891Z,4.98
2024-05-09T18:48:11.485Z,4.93
2024-05-09T18:50:41.196Z,4.87
2024-05-09T18:53:11.813Z,4.88
2024-05-09T18:55:42.167Z,8.57
2024-05-09T18:58:10.468Z,6.26
2024-05-09T19:00:41.334Z,6.11
2024-05-09T19:03:13.964Z,5.49
2024-05-09T19:05:44.643Z,5.49
2024-05-09T19:08:15.346Z,5.23
2024-05-09T19:10:45.783Z,5.81
2024-05-09T19:13:14.952Z,6.02
2024-05-09T19:15:44.066Z,5.52
2024-05-09T19:18:14.458Z,5.69
2024-05-09T19:20:43.983Z,5.66
2024-05-09T19:23:12.468Z,5.50
2024-05-09T19:25:40.688Z,5.22
2024-05-09T19:28:09.002Z,5.02
2024-05-09T19:30:41.132Z,5.58
2024-05-09T19:33:13.101Z,5.53
2024-05-09T19:35:42.892Z,5.30
2024-05-09T19:38:12.013Z,5.48
2024-05-09T19:40:40.447Z,5.35
2024-05-09T19:43:08.889Z,5.47
2024-05-09T19:45:37.364Z,5.69
2024-05-09T19:48:06.713Z,5.65
2024-05-09T19:50:41.661Z,5.48
2024-05-09T19:53:13.521Z,6.42
2024-05-09T19:55:42.501Z,6.18
2024-05-09T19:58:11.553Z,6.12
2024-05-09T20:00:42.682Z,6.20
2024-05-09T20:03:14.090Z,5.89
2024-05-09T20:05:45.498Z,5.71
2024-05-09T20:08:14.399Z,5.78
2024-05-09T20:10:42.725Z,5.89
2024-05-09T20:13:10.989Z,5.65
2024-05-09T20:15:40.195Z,6.46
2024-05-09T20:18:08.498Z,6.41
2024-05-09T20:20:40.527Z,6.51
2024-05-09T20:23:12.359Z,5.53
2024-05-09T20:25:41.717Z,5.37
2024-05-09T20:28:10.369Z,5.49
2024-05-09T20:30:38.963Z,5.40
2024-05-09T20:33:08.713Z,5.45
2024-05-09T20:35:37.975Z,5.18
2024-05-09T20:38:06.090Z,5.64
2024-05-09T20:40:37.867Z,5.48
2024-05-09T20:43:08.695Z,5.82
2024-05-09T20:45:37.150Z,5.40
2024-05-09T20:48:06.309Z,5.33
2024-05-09T20:50:39.395Z,5.54
2024-05-09T20:53:12.909Z,5.69
2024-05-09T20:55:43.210Z,5.55
2024-05-09T20:58:12.006Z,5.92
2024-05-09T21:00:43.603Z,6.86
2024-05-09T21:03:16.508Z,6.68
2024-05-09T21:05:46.410Z,6.11
2024-05-09T21:08:15.362Z,5.88
2024-05-09T21:10:43.571Z,5.93
2024-05-09T21:13:12.147Z,6.00
2024-05-09T21:15:40.231Z,6.44
2024-05-09T21:18:08.528Z,6.00
2024-05-09T21:20:37.703Z,6.55
2024-05-09T21:23:06.097Z,6.64
2024-05-09T21:25:34.179Z,6.35
2024-05-09T21:28:03.050Z,6.50
2024-05-09T21:30:38.842Z,6.12
2024-05-09T21:33:13.871Z,6.26
2024-05-09T21:35:43.993Z,6.68
2024-05-09T21:38:16.370Z,6.46
2024-05-09T21:40:45.126Z,5.99
2024-05-09T21:43:14.595Z,6.25
2024-05-09T21:45:43.536Z,6.20
2024-05-09T21:48:13.362Z,6.06
2024-05-09T21:50:42.588Z,5.93
2024-05-09T21:53:12.518Z,5.79
2024-05-09T21:55:44.511Z,5.83
2024-05-09T21:58:14.611Z,5.85
2024-05-09T22:00:45.633Z,5.94
2024-05-09T22:03:14.279Z,5.88
2024-05-09T22:05:44.419Z,6.21
2024-05-09T22:08:13.248Z,6.33
2024-05-09T22:10:41.491Z,5.96
2024-05-09T22:13:09.861Z,6.39
2024-05-09T22:15:39.931Z,6.33
2024-05-09T22:18:10.555Z,6.22
2024-05-09T22:20:45.555Z,6.32
2024-05-09T22:23:15.868Z,6.53
2024-05-09T22:25:44.223Z,6.42
2024-05-09T22:28:18.063Z,6.25
2024-05-09T22:30:47.322Z,6.73
2024-05-09T22:33:16.157Z,6.58
2024-05-09T22:35:44.319Z,6.53
2024-05-09T22:38:12.511Z,6.46
2024-05-09T22:40:47.374Z,6.94
2024-05-09T22:43:19.677Z,6.67
2024-05-09T22:45:48.244Z,7.46
2024-05-09T22:48:16.616Z,6.81
2024-05-09T22:50:45.132Z,7.03
2024-05-09T22:53:13.226Z,7.13
2024-05-09T22:55:41.497Z,7.19
2024-05-09T22:58:09.729Z,7.79
2024-05-09T23:00:37.899Z,7.21
2024-05-09T23:03:06.316Z,7.04
2024-05-09T23:05:34.569Z,7.55
2024-05-09T23:08:02.998Z,7.47
2024-05-09T23:10:36.397Z,6.95
2024-05-09T23:13:07.824Z,7.67
2024-05-09T23:15:40.190Z,7.08
2024-05-09T23:18:08.628Z,7.23
2024-05-09T23:20:39.679Z,7.66
2024-05-09T23:23:10.753Z,7.52
2024-05-09T23:25:43.934Z,7.60
2024-05-09T23:28:12.580Z,7.62
2024-05-09T23:30:42.084Z,8.06
2024-05-09T23:33:12.678Z,8.04
2024-05-09T23:35:42.466Z,8.16
2024-05-09T23:38:10.555Z,8.06
2024-05-09T23:40:40.887Z,8.08
2024-05-09T23:43:11.372Z,8.24
2024-05-09T23:45:40.951Z,8.10
2024-05-09T23:48:09.720Z,7.75
2024-05-09T23:50:39.590Z,8.29
2024-05-09T23:53:09.803Z,8.20
2024-05-09T23:55:39.183Z,8.28
2024-05-09T23:58:07.798Z,7.77
